createdAt,value
2022-09-16T00:01:00.612Z,15.43
2022-09-16T00:03:36.345Z,16.33
2022-09-16T00:06:09.472Z,18.50
2022-09-16T00:08:42.302Z,18.60
2022-09-16T00:11:15.823Z,21.85
2022-09-16T00:13:49.339Z,21.00
2022-09-16T00:16:25.671Z,20.85
2022-09-16T00:19:01.249Z,20.63
2022-09-16T00:21:34.539Z,20.50
2022-09-16T00:24:07.513Z,19.55
2022-09-16T00:26:41.393Z,18.92
2022-09-16T00:29:14.334Z,20.38
2022-09-16T00:31:47.141Z,20.33
2022-09-16T00:34:20.024Z,19.27
2022-09-16T00:36:52.754Z,18.38
2022-09-16T00:39:25.526Z,17.70
2022-09-16T00:41:58.378Z,14.82
2022-09-16T00:45:00.568Z,14.23
2022-09-16T00:47:38.800Z,12.85
2022-09-16T00:50:25.398Z,13.52
2022-09-16T00:53:00.088Z,12.27
2022-09-16T00:55:36.931Z,12.07
2022-09-16T00:59:03.965Z,11.32
2022-09-16T01:01:37.318Z,10.48
2022-09-16T01:04:17.614Z,11.35
2022-09-16T01:06:51.915Z,9.77
2022-09-16T01:09:27.327Z,9.88
2022-09-16T01:11:59.964Z,10.25
2022-09-16T01:14:50.885Z,9.98
2022-09-16T01:17:38.403Z,9.43
2022-09-16T01:20:19.989Z,9.40
2022-09-16T01:23:05.077Z,8.85
2022-09-16T01:26:10.851Z,9.63
2022-09-16T01:29:09.648Z,9.55
2022-09-16T01:32:19.321Z,8.30
2022-09-16T01:35:00.554Z,8.02
2022-09-16T01:37:45.262Z,8.60
2022-09-16T01:40:38.888Z,8.10
2022-09-16T01:43:21.101Z,8.38
2022-09-16T01:46:09.413Z,7.82
2022-09-16T01:49:03.566Z,7.90
2022-09-16T01:51:43.386Z,8.00
2022-09-16T01:54:41.998Z,7.30
2022-09-16T01:57:22.157Z,6.20
2022-09-16T02:00:06.387Z,6.50
2022-09-16T02:02:50.976Z,6.60
2022-09-16T02:05:37.628Z,5.80
2022-09-16T02:08:17.258Z,6.45
2022-09-16T02:10:55.775Z,7.25
2022-09-16T02:13:43.037Z,8.00
2022-09-16T02:16:37.716Z,6.82
2022-09-16T02:19:19.641Z,6.13
2022-09-16T02:21:56.352Z,5.27
2022-09-16T02:24:31.354Z,5.40
2022-09-16T02:27:08.884Z,5.65
2022-09-16T02:29:52.718Z,5.25
2022-09-16T02:32:28.490Z,6.28
2022-09-16T02:35:03.610Z,4.90
2022-09-16T02:37:44.584Z,5.20
2022-09-16T02:40:26.641Z,4.55
2022-09-16T02:48:30.891Z,4.60
2022-09-16T02:51:12.329Z,4.85
2022-09-16T02:54:26.605Z,5.33
2022-09-16T02:56:59.056Z,5.15
2022-09-16T02:59:31.463Z,5.55
2022-09-16T03:02:04.301Z,4.50
2022-09-16T03:04:37.735Z,4.68
2022-09-16T03:07:13.088Z,3.90
2022-09-16T03:09:49.969Z,4.47
2022-09-16T03:12:30.878Z,4.80
2022-09-16T03:15:30.066Z,4.15
2022-09-16T03:18:12.144Z,4.35
2022-09-16T03:20:54.777Z,4.20
2022-09-16T03:23:32.852Z,4.57
2022-09-16T03:26:13.992Z,4.00
2022-09-16T03:28:49.490Z,5.80
2022-09-16T03:31:34.310Z,5.90
2022-09-16T03:34:23.322Z,6.15
2022-09-16T03:37:02.145Z,5.65
2022-09-16T03:39:35.473Z,5.85
2022-09-16T03:42:12.225Z,6.75
2022-09-16T03:44:44.881Z,5.75
2022-09-16T03:47:17.835Z,6.50
2022-09-16T03:49:50.309Z,6.65
2022-09-16T03:52:22.566Z,6.60
2022-09-16T03:54:54.853Z,6.47
2022-09-16T03:57:28.999Z,7.22
2022-09-16T04:00:01.448Z,6.28
2022-09-16T04:02:43.808Z,6.22
2022-09-16T04:05:16.431Z,6.55
2022-09-16T04:07:51.551Z,6.35
2022-09-16T04:10:23.647Z,6.15
2022-09-16T04:13:00.144Z,6.55
2022-09-16T04:15:34.880Z,5.93
2022-09-16T04:18:11.117Z,6.65
2022-09-16T04:20:43.698Z,7.20
2022-09-16T04:23:15.942Z,7.78
2022-09-16T04:25:57.796Z,7.72
2022-09-16T04:28:32.492Z,7.60
2022-09-16T04:31:12.148Z,8.02
2022-09-16T04:33:44.614Z,7.50
2022-09-16T04:36:22.121Z,8.93
2022-09-16T04:38:54.517Z,9.93
2022-09-16T04:41:28.615Z,11.52
2022-09-16T04:44:02.351Z,10.25
2022-09-16T04:46:35.296Z,10.70
2022-09-16T04:49:08.012Z,10.70
2022-09-16T04:51:41.385Z,10.82
2022-09-16T04:54:13.914Z,10.73
2022-09-16T04:56:46.066Z,13.32
2022-09-16T04:59:18.489Z,13.90
2022-09-16T05:01:50.895Z,13.98
2022-09-16T05:04:24.048Z,13.38
2022-09-16T05:06:57.395Z,13.27
2022-09-16T05:09:30.045Z,13.25
2022-09-16T05:12:02.803Z,12.77
2022-09-16T05:14:35.075Z,13.05
2022-09-16T05:17:08.953Z,11.60
2022-09-16T05:19:41.356Z,10.15
2022-09-16T05:22:15.084Z,10.63
2022-09-16T05:24:47.828Z,11.30
2022-09-16T05:27:20.336Z,10.23
2022-09-16T05:29:52.728Z,9.85
2022-09-16T05:32:25.463Z,9.40
2022-09-16T05:34:57.778Z,9.55
2022-09-16T05:37:29.990Z,9.15
2022-09-16T05:40:03.961Z,9.43
2022-09-16T05:42:36.235Z,8.68
2022-09-16T05:45:40.784Z,8.05
2022-09-16T05:48:13.130Z,7.43
2022-09-16T05:50:56.408Z,7.70
2022-09-16T05:53:32.316Z,7.43
2022-09-16T05:56:06.536Z,6.68
2022-09-16T05:58:40.845Z,6.45
2022-09-16T06:01:21.242Z,6.15
2022-09-16T06:03:54.855Z,7.22
2022-09-16T06:06:29.907Z,6.47
2022-09-16T06:09:06.643Z,6.40
2022-09-16T06:11:44.508Z,6.35
2022-09-16T06:14:18.113Z,6.00
2022-09-16T06:16:51.302Z,6.65
2022-09-16T06:19:24.225Z,6.30
2022-09-16T06:21:56.593Z,5.15
2022-09-16T06:24:29.176Z,4.63
2022-09-16T06:27:01.462Z,5.40
2022-09-16T06:29:34.125Z,5.28
2022-09-16T06:32:06.388Z,5.07
2022-09-16T06:34:40.050Z,5.13
2022-09-16T06:37:14.800Z,5.57
2022-09-16T06:39:47.191Z,5.28
2022-09-16T06:42:19.945Z,4.65
2022-09-16T06:44:52.488Z,3.78
2022-09-16T06:47:24.801Z,4.68
2022-09-16T06:49:57.096Z,4.57
2022-09-16T06:52:52.865Z,4.93
2022-09-16T06:55:25.061Z,4.70
2022-09-16T06:57:58.899Z,5.05
2022-09-16T07:00:31.222Z,4.50
2022-09-16T07:03:04.619Z,4.53
2022-09-16T07:05:36.889Z,5.10
2022-09-16T07:08:09.321Z,5.40
2022-09-16T07:10:44.787Z,5.25
2022-09-16T07:13:22.409Z,4.82
2022-09-16T07:16:12.426Z,5.10
2022-09-16T07:18:46.508Z,5.38
2022-09-16T07:21:21.348Z,4.55
2022-09-16T07:23:57.161Z,5.95
2022-09-16T07:26:35.240Z,6.50
2022-09-16T07:29:09.495Z,6.55
2022-09-16T07:31:41.979Z,6.22
2022-09-16T07:34:15.489Z,5.97
2022-09-16T07:36:51.798Z,5.53
2022-09-16T07:39:24.268Z,5.63
2022-09-16T07:41:56.998Z,5.40
2022-09-16T07:44:45.118Z,6.05
2022-09-16T07:47:21.932Z,5.72
2022-09-16T07:50:15.678Z,5.57
2022-09-16T07:52:48.327Z,4.90
2022-09-16T07:55:21.483Z,5.03
2022-09-16T07:57:53.633Z,6.32
2022-09-16T08:00:25.748Z,8.48
2022-09-16T08:03:00.910Z,9.60
2022-09-16T08:05:33.134Z,9.52
2022-09-16T08:08:05.562Z,7.18
2022-09-16T08:10:41.428Z,7.10
2022-09-16T08:13:13.681Z,7.22
2022-09-16T08:15:46.244Z,7.95
2022-09-16T08:18:18.818Z,7.95
2022-09-16T08:20:51.090Z,7.68
2022-09-16T08:23:23.556Z,7.68
2022-09-16T08:26:00.451Z,7.10
2022-09-16T08:28:45.151Z,7.70
2022-09-16T08:31:23.727Z,7.35
2022-09-16T08:33:56.145Z,8.15
2022-09-16T08:36:28.998Z,7.43
2022-09-16T08:39:01.205Z,7.20
2022-09-16T08:41:48.188Z,7.30
2022-09-16T08:44:58.666Z,8.30
2022-09-16T08:47:35.094Z,8.13
2022-09-16T08:50:18.519Z,8.45
2022-09-16T08:52:52.577Z,8.20
2022-09-16T08:55:33.126Z,9.25
2022-09-16T08:58:23.712Z,8.32
2022-09-16T09:01:01.279Z,9.73
2022-09-16T09:03:33.765Z,9.15
2022-09-16T09:06:19.376Z,7.78
2022-09-16T09:08:58.684Z,9.57
2022-09-16T09:11:46.994Z,9.35
2022-09-16T09:14:31.375Z,9.27
2022-09-16T09:17:49.851Z,8.60
2022-09-16T09:20:49.107Z,8.07
2022-09-16T09:23:43.063Z,7.75
2022-09-16T09:26:20.984Z,8.07
2022-09-16T09:29:32.509Z,7.60
2022-09-16T09:32:19.077Z,7.85
2022-09-16T09:34:59.892Z,8.20
2022-09-16T09:37:59.417Z,7.97
2022-09-16T09:40:43.876Z,7.32
2022-09-16T09:43:44.195Z,6.97
2022-09-16T09:46:31.691Z,6.63
2022-09-16T09:49:15.340Z,6.32
2022-09-16T09:51:52.955Z,6.40
2022-09-16T09:54:31.436Z,6.78
2022-09-16T09:57:22.027Z,6.50
2022-09-16T10:00:24.198Z,6.75
2022-09-16T10:03:06.496Z,5.78
2022-09-16T10:05:40.098Z,6.47
2022-09-16T10:08:16.773Z,6.03
2022-09-16T10:10:57.641Z,5.85
2022-09-16T10:13:32.757Z,5.57
2022-09-16T10:16:47.473Z,5.90
2022-09-16T10:19:23.888Z,5.68
2022-09-16T10:22:13.388Z,6.88
2022-09-16T10:24:45.709Z,6.13
2022-09-16T10:27:51.182Z,8.93
2022-09-16T10:30:58.116Z,6.10
2022-09-16T10:33:38.283Z,7.13
2022-09-16T10:36:21.959Z,6.45
2022-09-16T10:39:05.433Z,6.97
2022-09-16T10:41:49.703Z,5.85
2022-09-16T10:44:33.569Z,6.20
2022-09-16T10:47:26.825Z,5.25
2022-09-16T10:50:06.131Z,5.00
2022-09-16T10:52:48.037Z,5.97
2022-09-16T10:55:26.198Z,5.97
2022-09-16T10:58:18.124Z,5.10
2022-09-16T11:01:31.447Z,4.63
2022-09-16T11:04:10.180Z,4.28
2022-09-16T11:07:11.333Z,3.90
2022-09-16T11:09:56.726Z,3.92
2022-09-16T11:13:06.200Z,3.63
2022-09-16T11:16:08.354Z,3.83
2022-09-16T11:19:09.963Z,3.75
2022-09-16T11:22:19.067Z,4.72
2022-09-16T11:25:18.228Z,4.22
2022-09-16T11:28:32.126Z,3.80
2022-09-16T11:31:29.910Z,4.25
2022-09-16T11:34:20.609Z,5.22
2022-09-16T11:37:10.675Z,4.47
2022-09-16T11:39:55.087Z,4.95
2022-09-16T11:42:37.472Z,5.60
2022-09-16T11:45:33.838Z,4.95
2022-09-16T11:48:30.342Z,5.05
2022-09-16T11:51:08.277Z,5.40
2022-09-16T11:54:05.730Z,6.00
2022-09-16T11:56:59.408Z,5.93
2022-09-16T11:59:44.056Z,6.57
2022-09-16T12:02:22.322Z,7.03
2022-09-16T12:05:04.887Z,7.25
2022-09-16T12:07:59.100Z,8.30
2022-09-16T12:10:49.265Z,8.20
2022-09-16T12:13:27.621Z,9.40
2022-09-16T12:16:32.018Z,11.45
2022-09-16T12:19:14.779Z,11.25
2022-09-16T12:21:58.535Z,11.07
2022-09-16T12:25:04.462Z,10.37
2022-09-16T12:27:52.611Z,10.50
2022-09-16T12:30:29.482Z,10.93
2022-09-16T12:33:23.749Z,13.10
2022-09-16T12:36:00.951Z,12.80
2022-09-16T12:38:33.703Z,13.48
2022-09-16T12:41:15.190Z,13.07
2022-09-16T12:44:23.507Z,12.63
2022-09-16T12:47:14.219Z,12.25
2022-09-16T12:50:04.587Z,11.68
2022-09-16T12:52:45.135Z,11.60
2022-09-16T12:55:51.482Z,10.77
2022-09-16T12:59:14.642Z,11.07
2022-09-16T13:02:06.076Z,10.77
2022-09-16T13:04:54.838Z,10.90
2022-09-16T13:07:34.761Z,11.52
2022-09-16T13:10:54.687Z,11.07
2022-09-16T13:13:44.711Z,10.38
2022-09-16T13:16:32.787Z,11.45
2022-09-16T13:19:39.580Z,10.95
2022-09-16T13:22:24.611Z,10.95
2022-09-16T13:25:11.213Z,10.05
2022-09-16T13:28:05.274Z,11.65
2022-09-16T13:30:43.239Z,11.07
2022-09-16T13:33:24.074Z,11.60
2022-09-16T13:36:26.984Z,11.77
2022-09-16T13:39:03.759Z,10.98
2022-09-16T13:41:54.562Z,10.50
2022-09-16T13:44:46.827Z,10.90
2022-09-16T13:47:33.699Z,10.02
2022-09-16T13:50:16.411Z,9.68
2022-09-16T13:52:50.713Z,9.20
2022-09-16T13:55:31.032Z,10.00
2022-09-16T13:58:06.213Z,8.75
2022-09-16T14:01:13.359Z,9.23
2022-09-16T14:04:09.051Z,8.55
2022-09-16T14:06:47.630Z,7.80
2022-09-16T14:09:29.661Z,7.47
2022-09-16T14:12:26.750Z,7.38
2022-09-16T14:15:04.068Z,6.97
2022-09-16T14:17:51.403Z,7.00
2022-09-16T14:20:28.361Z,6.85
2022-09-16T14:23:29.937Z,7.15
2022-09-16T14:26:19.916Z,8.27
2022-09-16T14:29:07.718Z,8.88
2022-09-16T14:31:46.818Z,7.88
2022-09-16T14:34:41.166Z,8.30
2022-09-16T14:37:19.062Z,7.25
2022-09-16T14:39:55.222Z,7.45
2022-09-16T14:42:28.015Z,7.72
2022-09-16T14:45:04.627Z,6.28
2022-09-16T14:47:57.134Z,6.65
2022-09-16T14:50:35.385Z,7.15
2022-09-16T14:53:11.011Z,6.15
2022-09-16T14:55:51.157Z,6.10
2022-09-16T14:58:27.600Z,5.80
2022-09-16T15:01:13.078Z,5.78
2022-09-16T15:03:52.178Z,5.68
2022-09-16T15:06:33.633Z,6.00
2022-09-16T15:09:19.298Z,6.03
2022-09-16T15:11:59.440Z,5.15
2022-09-16T15:14:31.886Z,5.07
2022-09-16T15:17:05.756Z,5.38
2022-09-16T15:19:42.896Z,5.75
2022-09-16T15:22:17.548Z,5.07
2022-09-16T15:24:54.625Z,4.53
2022-09-16T15:27:34.073Z,4.15
2022-09-16T15:30:09.142Z,4.82
2022-09-16T15:32:47.185Z,5.20
2022-09-16T15:35:28.218Z,4.68
2022-09-16T15:38:11.764Z,4.50
2022-09-16T15:40:44.324Z,4.38
2022-09-16T15:43:31.122Z,3.85
2022-09-16T15:46:15.497Z,4.30
2022-09-16T15:48:53.531Z,4.18
2022-09-16T15:51:49.198Z,4.07
2022-09-16T15:54:34.806Z,3.95
2022-09-16T15:57:33.117Z,4.30
2022-09-16T16:00:14.349Z,3.78
2022-09-16T16:03:02.195Z,4.10
2022-09-16T16:05:36.296Z,3.83
2022-09-16T16:08:10.057Z,3.78
2022-09-16T16:10:43.514Z,3.90
2022-09-16T16:13:15.659Z,4.20
2022-09-16T16:15:48.575Z,4.05
2022-09-16T16:18:21.461Z,4.15
2022-09-16T16:20:53.741Z,4.15
2022-09-16T16:23:26.223Z,4.28
2022-09-16T16:25:58.605Z,4.65
2022-09-16T16:31:19.874Z,3.70
2022-09-16T16:33:52.122Z,4.55
2022-09-16T16:36:24.846Z,4.22
2022-09-16T16:38:57.219Z,3.78
2022-09-16T16:44:01.287Z,3.80
2022-09-16T16:46:33.570Z,3.90
2022-09-16T16:49:06.561Z,3.97
2022-09-16T16:51:38.936Z,3.95
2022-09-16T16:56:44.786Z,3.90
2022-09-16T16:59:18.525Z,4.03
2022-09-16T17:01:53.889Z,4.45
2022-09-16T17:04:27.624Z,4.07
2022-09-16T17:07:24.186Z,3.53
2022-09-16T17:09:52.066Z,4.10
2022-09-16T17:12:24.265Z,4.10
2022-09-16T17:17:31.583Z,3.87
2022-09-16T17:20:04.799Z,3.67
2022-09-16T17:22:36.952Z,3.97
2022-09-16T17:27:41.156Z,4.17
2022-09-16T17:30:14.962Z,3.92
2022-09-16T17:32:47.076Z,3.78
2022-09-16T17:37:50.820Z,4.15
2022-09-16T17:42:55.408Z,3.80
2022-09-16T17:48:00.478Z,3.60
2022-09-16T17:50:32.691Z,4.50
2022-09-16T17:53:04.943Z,4.20
2022-09-16T17:55:36.977Z,3.90
2022-09-16T17:58:09.221Z,4.20
2022-09-16T18:00:41.462Z,4.03
2022-09-16T18:05:46.797Z,4.20
2022-09-16T18:08:19.078Z,4.13
2022-09-16T18:10:57.094Z,4.22
2022-09-16T18:13:29.352Z,3.78
2022-09-16T18:16:09.919Z,3.47
2022-09-16T18:18:43.725Z,4.35
2022-09-16T18:21:18.229Z,4.40
2022-09-16T18:23:54.235Z,4.25
2022-09-16T18:26:27.337Z,4.38
2022-09-16T18:29:10.969Z,4.20
2022-09-16T18:31:46.677Z,4.18
2022-09-16T18:34:19.348Z,4.70
2022-09-16T18:36:51.442Z,4.10
2022-09-16T18:39:23.559Z,4.15
2022-09-16T18:44:27.493Z,4.45
2022-09-16T18:46:59.666Z,4.22
2022-09-16T18:52:03.730Z,3.97
2022-09-16T18:54:35.839Z,4.45
2022-09-16T18:59:39.598Z,3.67
2022-09-16T19:02:14.925Z,4.05
2022-09-16T19:04:53.311Z,4.10
2022-09-16T19:07:28.098Z,3.92
2022-09-16T19:10:00.556Z,3.88
2022-09-16T19:12:35.942Z,3.50
2022-09-16T19:15:12.202Z,4.03
2022-09-16T19:17:44.443Z,3.55
2022-09-16T19:20:16.926Z,4.13
2022-09-16T19:22:49.238Z,3.83
2022-09-16T19:25:21.411Z,3.83
2022-09-16T19:30:27.834Z,3.40
2022-09-16T19:33:00.735Z,3.70
2022-09-16T19:35:34.589Z,3.70
2022-09-16T19:38:06.981Z,3.85
2022-09-16T19:43:11.058Z,4.03
2022-09-16T19:48:14.749Z,3.80
2022-09-16T19:50:53.590Z,3.78
2022-09-16T19:53:25.821Z,3.13
2022-09-16T19:58:42.316Z,3.45
2022-09-16T20:01:21.017Z,3.38
2022-09-16T20:03:54.082Z,3.17
2022-09-16T20:06:33.996Z,3.85
2022-09-16T20:09:08.800Z,3.72
2022-09-16T20:11:43.515Z,3.35
2022-09-16T20:14:20.319Z,3.60
2022-09-16T20:16:53.433Z,3.65
2022-09-16T20:19:25.999Z,3.30
2022-09-16T20:21:58.193Z,2.90
2022-09-16T20:27:02.107Z,3.10
2022-09-16T20:29:34.424Z,3.25
2022-09-16T20:34:38.619Z,2.92
2022-09-16T20:39:43.268Z,2.85
2022-09-16T20:42:15.934Z,3.20
2022-09-16T20:44:49.499Z,3.17
2022-09-16T20:47:21.758Z,3.55
2022-09-16T20:52:25.473Z,2.88
2022-09-16T20:54:58.389Z,3.20
2022-09-16T20:57:30.478Z,2.65
2022-09-16T21:00:02.960Z,2.60
2022-09-16T21:02:35.747Z,2.90
2022-09-16T21:05:08.284Z,3.30
2022-09-16T21:07:40.577Z,2.83
2022-09-16T21:10:13.191Z,3.30
2022-09-16T21:12:45.384Z,3.20
2022-09-16T21:17:49.860Z,3.20
2022-09-16T21:20:23.421Z,4.10
2022-09-16T21:22:55.539Z,3.35
2022-09-16T21:27:59.468Z,2.90
2022-09-16T21:30:32.147Z,2.65
2022-09-16T21:33:04.349Z,3.42
2022-09-16T21:38:08.535Z,3.05
2022-09-16T21:43:13.311Z,2.80
2022-09-16T21:45:46.605Z,3.58
2022-09-16T21:48:21.015Z,3.10
2022-09-16T21:50:55.316Z,3.00
2022-09-16T21:53:27.796Z,2.70
2022-09-16T21:58:36.853Z,3.33
2022-09-16T22:01:15.619Z,3.45
2022-09-16T22:03:50.313Z,3.00
2022-09-16T22:06:23.884Z,3.53
2022-09-16T22:08:58.816Z,3.42
2022-09-16T22:11:34.138Z,3.53
2022-09-16T22:14:06.903Z,3.25
2022-09-16T22:16:40.582Z,3.00
2022-09-16T22:19:19.117Z,3.50
2022-09-16T22:21:53.056Z,3.28
2022-09-16T22:24:25.262Z,3.70
2022-09-16T22:26:57.668Z,3.53
2022-09-16T22:32:01.453Z,3.35
2022-09-16T22:34:36.275Z,3.25
2022-09-16T22:37:10.708Z,3.03
2022-09-16T22:39:42.841Z,2.95
2022-09-16T22:44:46.515Z,2.72
2022-09-16T22:47:18.639Z,3.10
2022-09-16T22:52:22.624Z,3.58
2022-09-16T22:54:54.733Z,3.20
2022-09-16T22:57:27.148Z,3.25
2022-09-16T23:02:31.405Z,3.25
2022-09-16T23:05:04.125Z,3.33
2022-09-16T23:07:36.599Z,4.00
2022-09-16T23:10:10.689Z,3.67
2022-09-16T23:12:44.055Z,3.47
2022-09-16T23:15:17.736Z,3.63
2022-09-16T23:17:49.976Z,3.05
2022-09-16T23:22:53.684Z,3.03
2022-09-16T23:25:26.312Z,3.25
2022-09-16T23:27:58.430Z,3.20
2022-09-16T23:33:02.073Z,3.10
2022-09-16T23:35:34.432Z,3.35
2022-09-16T23:40:39.788Z,3.17
2022-09-16T23:43:11.886Z,3.42
2022-09-16T23:48:16.275Z,3.47
2022-09-16T23:50:48.521Z,3.78
2022-09-16T23:53:20.939Z,6.20
2022-09-16T23:55:53.455Z,6.32
